sensor_id;sensor_type;location;lat;lon;timestamp;pressure;altitude;pressure_sealevel;temperature;humidity
20027;BME280;10174;42.688;23.344;2023-03-23T00:02:30;95308.66;;;5.08;100.00
20027;BME280;10174;42.688;23.344;2023-03-23T00:05:04;95314.31;;;5.00;100.00
20027;BME280;10174;42.688;23.344;2023-03-23T00:07:31;95290.66;;;4.80;100.00
20027;BME280;10174;42.688;23.344;2023-03-23T00:09:58;95291.81;;;4.84;100.00
20027;BME280;10174;42.688;23.344;2023-03-23T00:12:25;95310.03;;;4.99;100.00
20027;BME280;10174;42.688;23.344;2023-03-23T00:14:57;95319.19;;;5.03;100.00
20027;BME280;10174;42.688;23.344;2023-03-23T00:17:22;95289.84;;;4.91;100.00
20027;BME280;10174;42.688;23.344;2023-03-23T00:19:48;95314.69;;;5.15;100.00
20027;BME280;10174;42.688;23.344;2023-03-23T00:22:15;95307.88;;;5.20;100.00
20027;BME280;10174;42.688;23.344;2023-03-23T00:24:42;95317.34;;;5.15;100.00
20027;BME280;10174;42.688;23.344;2023-03-23T00:27:09;95294.66;;;5.13;100.00
20027;BME280;10174;42.688;23.344;2023-03-23T00:29:38;95319.91;;;5.22;99.98
20027;BME280;10174;42.688;23.344;2023-03-23T00:32:03;95217.06;;;4.43;100.00
20027;BME280;10174;42.688;23.344;2023-03-23T00:34:28;95324.28;;;5.05;100.00
20027;BME280;10174;42.688;23.344;2023-03-23T00:36:57;95324.28;;;5.05;100.00
20027;BME280;10174;42.688;23.344;2023-03-23T00:39:25;95321.13;;;4.96;100.00
20027;BME280;10174;42.688;23.344;2023-03-23T00:41:52;95330.88;;;5.02;100.00
20027;BME280;10174;42.688;23.344;2023-03-23T00:44:18;95316.72;;;4.90;100.00
20027;BME280;10174;42.688;23.344;2023-03-23T00:46:45;95332.03;;;5.06;100.00
20027;BME280;10174;42.688;23.344;2023-03-23T00:49:16;95324.75;;;5.02;100.00
20027;BME280;10174;42.688;23.344;2023-03-23T00:51:42;95335.53;;;5.18;100.00
20027;BME280;10174;42.688;23.344;2023-03-23T00:54:08;95331.13;;;5.12;99.68
20027;BME280;10174;42.688;23.344;2023-03-23T00:56:34;95331.59;;;5.09;100.00
20027;BME280;10174;42.688;23.344;2023-03-23T00:59:00;95323.25;;;5.06;100.00
20027;BME280;10174;42.688;23.344;2023-03-23T01:01:26;95306.78;;;4.97;100.00
20027;BME280;10174;42.688;23.344;2023-03-23T01:03:51;95340.06;;;5.18;100.00
20027;BME280;10174;42.688;23.344;2023-03-23T01:06:18;95320.81;;;5.16;100.00
20027;BME280;10174;42.688;23.344;2023-03-23T01:08:43;95338.00;;;5.32;100.00
20027;BME280;10174;42.688;23.344;2023-03-23T01:11:14;95343.44;;;5.37;100.00
20027;BME280;10174;42.688;23.344;2023-03-23T01:13:42;95311.91;;;5.10;100.00
20027;BME280;10174;42.688;23.344;2023-03-23T01:16:08;95344.38;;;5.31;100.00
20027;BME280;10174;42.688;23.344;2023-03-23T01:18:34;95335.69;;;5.35;100.00
20027;BME280;10174;42.688;23.344;2023-03-23T01:21:05;95330.47;;;5.29;100.00
20027;BME280;10174;42.688;23.344;2023-03-23T01:23:32;95316.94;;;5.30;100.00
20027;BME280;10174;42.688;23.344;2023-03-23T01:26:03;95330.97;;;5.38;100.00
20027;BME280;10174;42.688;23.344;2023-03-23T01:28:28;95317.25;;;5.22;100.00
20027;BME280;10174;42.688;23.344;2023-03-23T01:31:05;95326.19;;;5.28;100.00
20027;BME280;10174;42.688;23.344;2023-03-23T01:33:31;95314.50;;;5.29;100.00
20027;BME280;10174;42.688;23.344;2023-03-23T01:35:58;95316.59;;;5.27;100.00
20027;BME280;10174;42.688;23.344;2023-03-23T01:38:23;95291.63;;;5.09;100.00
20027;BME280;10174;42.688;23.344;2023-03-23T01:40:49;95311.00;;;5.16;100.00
20027;BME280;10174;42.688;23.344;2023-03-23T01:43:15;95302.88;;;4.99;100.00
20027;BME280;10174;42.688;23.344;2023-03-23T01:45:41;95310.03;;;4.99;100.00
20027;BME280;10174;42.688;23.344;2023-03-23T01:48:12;95296.41;;;5.07;100.00
20027;BME280;10174;42.688;23.344;2023-03-23T01:50:55;95198.25;;;4.57;100.00
20027;BME280;10174;42.688;23.344;2023-03-23T01:53:25;95304.75;;;5.23;100.00
20027;BME280;10174;42.688;23.344;2023-03-23T01:55:52;95288.09;;;5.27;100.00
20027;BME280;10174;42.688;23.344;2023-03-23T01:58:21;95287.84;;;5.29;100.00
20027;BME280;10174;42.688;23.344;2023-03-23T02:00:51;95297.84;;;5.45;100.00
20027;BME280;10174;42.688;23.344;2023-03-23T02:03:19;95292.97;;;5.42;100.00
20027;BME280;10174;42.688;23.344;2023-03-23T02:05:48;95291.91;;;5.43;100.00
20027;BME280;10174;42.688;23.344;2023-03-23T02:08:15;95304.06;;;5.51;100.00
20027;BME280;10174;42.688;23.344;2023-03-23T02:10:43;95308.38;;;5.64;100.00
20027;BME280;10174;42.688;23.344;2023-03-23T02:13:10;95286.00;;;5.41;100.00
20027;BME280;10174;42.688;23.344;2023-03-23T02:15:45;95307.78;;;5.62;100.00
20027;BME280;10174;42.688;23.344;2023-03-23T02:26:11;95302.34;;;5.68;100.00
20027;BME280;10174;42.688;23.344;2023-03-23T02:29:03;95301.31;;;5.58;100.00
20027;BME280;10174;42.688;23.344;2023-03-23T02:37:00;95311.94;;;5.34;100.00
20027;BME280;10174;42.688;23.344;2023-03-23T02:39:29;95303.59;;;5.30;100.00
20027;BME280;10174;42.688;23.344;2023-03-23T02:42:17;95312.63;;;5.29;100.00
20027;BME280;10174;42.688;23.344;2023-03-23T02:44:46;95326.28;;;5.21;100.00
20027;BME280;10174;42.688;23.344;2023-03-23T02:47:17;95316.97;;;5.00;100.00
20027;BME280;10174;42.688;23.344;2023-03-23T02:49:46;95335.94;;;4.92;100.00
20027;BME280;10174;42.688;23.344;2023-03-23T02:52:16;95338.91;;;4.84;100.00
20027;BME280;10174;42.688;23.344;2023-03-23T02:54:44;95230.22;;;4.08;100.00
20027;BME280;10174;42.688;23.344;2023-03-23T02:57:11;95316.53;;;4.42;100.00
20027;BME280;10174;42.688;23.344;2023-03-23T02:59:36;95328.94;;;4.49;100.00
20027;BME280;10174;42.688;23.344;2023-03-23T03:02:06;95343.41;;;4.53;100.00
20027;BME280;10174;42.688;23.344;2023-03-23T03:04:32;95329.69;;;4.37;100.00
20027;BME280;10174;42.688;23.344;2023-03-23T03:10:23;95350.53;;;4.40;100.00
20027;BME280;10174;42.688;23.344;2023-03-23T03:13:12;95347.72;;;4.35;100.00
20027;BME280;10174;42.688;23.344;2023-03-23T03:15:45;95360.72;;;4.43;100.00
20027;BME280;10174;42.688;23.344;2023-03-23T03:18:20;95321.13;;;4.17;100.00
20027;BME280;10174;42.688;23.344;2023-03-23T03:20:50;95360.06;;;4.48;100.00
20027;BME280;10174;42.688;23.344;2023-03-23T03:23:20;95363.91;;;4.52;100.00
20027;BME280;10174;42.688;23.344;2023-03-23T03:25:47;95335.31;;;4.48;100.00
20027;BME280;10174;42.688;23.344;2023-03-23T03:28:18;95366.13;;;4.55;100.00
20027;BME280;10174;42.688;23.344;2023-03-23T03:30:57;95350.81;;;4.51;100.00
20027;BME280;10174;42.688;23.344;2023-03-23T03:33:26;95355.41;;;4.43;100.00
20027;BME280;10174;42.688;23.344;2023-03-23T03:35:58;95368.56;;;4.57;100.00
20027;BME280;10174;42.688;23.344;2023-03-23T03:38:25;95352.59;;;4.57;100.00
20027;BME280;10174;42.688;23.344;2023-03-23T03:40:52;95377.88;;;4.78;100.00
20027;BME280;10174;42.688;23.344;2023-03-23T03:43:18;95241.22;;;4.12;100.00
20027;BME280;10174;42.688;23.344;2023-03-23T03:45:43;95369.38;;;4.88;99.77
20027;BME280;10174;42.688;23.344;2023-03-23T03:48:09;95369.50;;;4.93;99.87
20027;BME280;10174;42.688;23.344;2023-03-23T03:50:35;95291.91;;;4.47;99.53
20027;BME280;10174;42.688;23.344;2023-03-23T03:53:00;95354.47;;;4.98;98.55
20027;BME280;10174;42.688;23.344;2023-03-23T03:55:26;95344.63;;;4.87;98.21
20027;BME280;10174;42.688;23.344;2023-03-23T03:57:53;95335.09;;;4.79;98.12
20027;BME280;10174;42.688;23.344;2023-03-23T04:00:20;95361.13;;;5.08;97.32
20027;BME280;10174;42.688;23.344;2023-03-23T04:02:47;95362.69;;;4.97;97.96
20027;BME280;10174;42.688;23.344;2023-03-23T04:05:16;95273.25;;;4.35;98.43
20027;BME280;10174;42.688;23.344;2023-03-23T04:07:41;95332.44;;;4.79;98.27
20027;BME280;10174;42.688;23.344;2023-03-23T04:10:09;95360.22;;;4.84;98.35
20027;BME280;10174;42.688;23.344;2023-03-23T04:12:35;95234.59;;;4.02;97.97
20027;BME280;10174;42.688;23.344;2023-03-23T04:15:01;95332.91;;;4.58;98.25
20027;BME280;10174;42.688;23.344;2023-03-23T04:17:27;95339.72;;;4.54;98.16
20027;BME280;10174;42.688;23.344;2023-03-23T04:19:54;95355.69;;;4.54;98.49
20027;BME280;10174;42.688;23.344;2023-03-23T04:22:31;95355.84;;;4.40;99.59
20027;BME280;10174;42.688;23.344;2023-03-23T04:24:58;95352.06;;;4.48;99.85
20027;BME280;10174;42.688;23.344;2023-03-23T04:27:27;95354.50;;;4.50;100.00
20027;BME280;10174;42.688;23.344;2023-03-23T04:29:57;95354.59;;;4.73;100.00
20027;BME280;10174;42.688;23.344;2023-03-23T04:32:28;95368.41;;;4.82;99.03
20027;BME280;10174;42.688;23.344;2023-03-23T04:35:00;95359.63;;;4.81;98.24
20027;BME280;10174;42.688;23.344;2023-03-23T04:37:26;95332.78;;;4.53;98.44
20027;BME280;10174;42.688;23.344;2023-03-23T04:39:57;95339.47;;;4.74;98.17
20027;BME280;10174;42.688;23.344;2023-03-23T04:42:30;95357.03;;;4.75;98.45
20027;BME280;10174;42.688;23.344;2023-03-23T04:44:59;95377.81;;;4.85;98.44
20027;BME280;10174;42.688;23.344;2023-03-23T04:47:26;95363.81;;;4.89;98.58
20027;BME280;10174;42.688;23.344;2023-03-23T04:49:57;95371.13;;;4.94;98.22
20027;BME280;10174;42.688;23.344;2023-03-23T04:52:27;95366.38;;;4.96;99.09
20027;BME280;10174;42.688;23.344;2023-03-23T04:54:54;95375.69;;;5.05;99.34
20027;BME280;10174;42.688;23.344;2023-03-23T04:57:21;95332.28;;;4.74;98.15
20027;BME280;10174;42.688;23.344;2023-03-23T04:59:47;95367.84;;;5.10;98.01
20027;BME280;10174;42.688;23.344;2023-03-23T05:02:12;95382.75;;;5.11;97.80
20027;BME280;10174;42.688;23.344;2023-03-23T05:04:38;95377.31;;;5.06;97.85
20027;BME280;10174;42.688;23.344;2023-03-23T05:07:06;95370.41;;;5.17;98.22
20027;BME280;10174;42.688;23.344;2023-03-23T05:09:32;95380.53;;;5.27;98.12
20027;BME280;10174;42.688;23.344;2023-03-23T05:11:57;95306.50;;;4.87;97.31
20027;BME280;10174;42.688;23.344;2023-03-23T05:14:24;95369.06;;;5.38;98.10
20027;BME280;10174;42.688;23.344;2023-03-23T05:16:50;95377.19;;;5.55;97.05
20027;BME280;10174;42.688;23.344;2023-03-23T05:19:17;95363.44;;;5.70;96.48
20027;BME280;10174;42.688;23.344;2023-03-23T05:21:42;95392.41;;;5.78;95.75
20027;BME280;10174;42.688;23.344;2023-03-23T05:24:10;95382.66;;;5.60;96.70
20027;BME280;10174;42.688;23.344;2023-03-23T05:26:35;95391.00;;;5.52;97.07
20027;BME280;10174;42.688;23.344;2023-03-23T05:29:01;95406.28;;;5.57;96.82
20027;BME280;10174;42.688;23.344;2023-03-23T05:31:26;95394.69;;;5.39;97.25
20027;BME280;10174;42.688;23.344;2023-03-23T05:33:52;95394.31;;;5.35;97.97
20027;BME280;10174;42.688;23.344;2023-03-23T05:36:17;95305.22;;;4.77;97.39
20027;BME280;10174;42.688;23.344;2023-03-23T05:38:43;95395.22;;;5.29;98.05
20027;BME280;10174;42.688;23.344;2023-03-23T05:41:19;95414.94;;;5.40;98.02
20027;BME280;10174;42.688;23.344;2023-03-23T05:43:44;95402.53;;;5.34;97.25
20027;BME280;10174;42.688;23.344;2023-03-23T05:46:10;95418.91;;;5.49;97.27
20027;BME280;10174;42.688;23.344;2023-03-23T05:48:35;95415.91;;;5.58;96.69
20027;BME280;10174;42.688;23.344;2023-03-23T05:51:01;95386.00;;;5.44;96.36
20027;BME280;10174;42.688;23.344;2023-03-23T05:53:27;95422.78;;;5.89;95.45
20027;BME280;10174;42.688;23.344;2023-03-23T05:55:58;95403.44;;;5.82;95.21
20027;BME280;10174;42.688;23.344;2023-03-23T05:58:23;95400.75;;;5.94;95.26
20027;BME280;10174;42.688;23.344;2023-03-23T06:00:49;95410.44;;;6.06;94.37
20027;BME280;10174;42.688;23.344;2023-03-23T06:03:14;95414.13;;;6.05;94.14
20027;BME280;10174;42.688;23.344;2023-03-23T06:05:44;95406.25;;;5.99;94.27
20027;BME280;10174;42.688;23.344;2023-03-23T06:08:10;95340.94;;;5.66;94.29
20027;BME280;10174;42.688;23.344;2023-03-23T06:10:36;95404.41;;;5.99;94.32
20027;BME280;10174;42.688;23.344;2023-03-23T06:13:02;95434.56;;;6.23;94.61
20027;BME280;10174;42.688;23.344;2023-03-23T06:15:28;95423.41;;;6.03;94.33
20027;BME280;10174;42.688;23.344;2023-03-23T06:18:00;95437.06;;;5.95;94.25
20027;BME280;10174;42.688;23.344;2023-03-23T06:20:26;95425.03;;;6.04;94.28
20027;BME280;10174;42.688;23.344;2023-03-23T06:22:51;95408.34;;;6.09;92.74
20027;BME280;10174;42.688;23.344;2023-03-23T06:25:19;95432.13;;;6.10;93.45
20027;BME280;10174;42.688;23.344;2023-03-23T06:27:45;95429.22;;;6.00;93.70
20027;BME280;10174;42.688;23.344;2023-03-23T06:30:12;95427.03;;;6.20;92.76
20027;BME280;10174;42.688;23.344;2023-03-23T06:32:38;95422.16;;;6.17;92.32
20027;BME280;10174;42.688;23.344;2023-03-23T06:35:04;95439.78;;;6.42;92.18
20027;BME280;10174;42.688;23.344;2023-03-23T06:37:30;95375.63;;;6.01;91.54
20027;BME280;10174;42.688;23.344;2023-03-23T06:39:55;95430.72;;;6.43;91.20
20027;BME280;10174;42.688;23.344;2023-03-23T06:42:22;95433.59;;;6.53;91.80
20027;BME280;10174;42.688;23.344;2023-03-23T06:44:50;95429.41;;;6.57;91.27
20027;BME280;10174;42.688;23.344;2023-03-23T06:47:15;95441.34;;;6.78;90.73
20027;BME280;10174;42.688;23.344;2023-03-23T06:49:41;95432.31;;;6.68;91.17
20027;BME280;10174;42.688;23.344;2023-03-23T06:52:06;95442.53;;;6.47;91.62
20027;BME280;10174;42.688;23.344;2023-03-23T06:54:32;95449.50;;;6.36;91.89
20027;BME280;10174;42.688;23.344;2023-03-23T06:56:57;95427.13;;;6.37;91.90
20027;BME280;10174;42.688;23.344;2023-03-23T06:59:22;95453.44;;;6.57;90.79
20027;BME280;10174;42.688;23.344;2023-03-23T07:01:48;95432.31;;;6.68;90.31
20027;BME280;10174;42.688;23.344;2023-03-23T07:04:14;95452.19;;;7.01;90.03
20027;BME280;10174;42.688;23.344;2023-03-23T07:06:39;95389.31;;;6.81;89.06
20027;BME280;10174;42.688;23.344;2023-03-23T07:09:05;95438.34;;;7.04;89.00
20027;BME280;10174;42.688;23.344;2023-03-23T07:11:31;95452.22;;;7.29;89.10
20027;BME280;10174;42.688;23.344;2023-03-23T07:13:57;95439.91;;;7.28;88.85
20027;BME280;10174;42.688;23.344;2023-03-23T07:16:22;95330.66;;;6.57;89.30
20027;BME280;10174;42.688;23.344;2023-03-23T07:18:48;95448.00;;;7.34;88.52
20027;BME280;10174;42.688;23.344;2023-03-23T07:21:13;95448.56;;;7.36;87.73
20027;BME280;10174;42.688;23.344;2023-03-23T07:23:39;95434.34;;;7.30;88.31
20027;BME280;10174;42.688;23.344;2023-03-23T07:26:05;95459.19;;;7.59;88.12
20027;BME280;10174;42.688;23.344;2023-03-23T07:28:30;95436.81;;;7.65;87.36
20027;BME280;10174;42.688;23.344;2023-03-23T07:30:56;95430.69;;;7.82;87.19
20027;BME280;10174;42.688;23.344;2023-03-23T07:33:21;95450.28;;;8.05;85.99
20027;BME280;10174;42.688;23.344;2023-03-23T07:35:47;95449.00;;;8.07;85.58
20027;BME280;10174;42.688;23.344;2023-03-23T07:38:13;95439.28;;;8.01;84.83
20027;BME280;10174;42.688;23.344;2023-03-23T07:40:39;95456.69;;;8.37;84.57
20027;BME280;10174;42.688;23.344;2023-03-23T07:43:05;95458.72;;;8.30;84.06
20027;BME280;10174;42.688;23.344;2023-03-23T07:45:32;95458.22;;;8.33;84.06
20027;BME280;10174;42.688;23.344;2023-03-23T07:47:58;95462.78;;;8.50;84.41
20027;BME280;10174;42.688;23.344;2023-03-23T07:50:24;95452.38;;;8.70;83.50
20027;BME280;10174;42.688;23.344;2023-03-23T07:52:51;95441.75;;;8.81;83.11
20027;BME280;10174;42.688;23.344;2023-03-23T07:55:17;95457.75;;;9.15;82.80
20027;BME280;10174;42.688;23.344;2023-03-23T07:57:49;95454.78;;;9.38;80.83
20027;BME280;10174;42.688;23.344;2023-03-23T08:00:16;95400.25;;;9.05;79.26
20027;BME280;10174;42.688;23.344;2023-03-23T08:02:52;95391.56;;;9.20;79.28
20027;BME280;10174;42.688;23.344;2023-03-23T08:05:19;95457.25;;;9.72;78.50
20027;BME280;10174;42.688;23.344;2023-03-23T08:07:46;95415.56;;;9.59;77.65
20027;BME280;10174;42.688;23.344;2023-03-23T08:10:13;95470.22;;;9.80;77.42
20027;BME280;10174;42.688;23.344;2023-03-23T08:12:41;95474.47;;;9.76;77.23
20027;BME280;10174;42.688;23.344;2023-03-23T08:15:08;95466.34;;;9.98;75.51
20027;BME280;10174;42.688;23.344;2023-03-23T08:17:34;95450.97;;;9.89;75.60
20027;BME280;10174;42.688;23.344;2023-03-23T08:20:00;95422.19;;;9.79;74.05
20027;BME280;10174;42.688;23.344;2023-03-23T08:22:26;95460.47;;;10.72;73.39
20027;BME280;10174;42.688;23.344;2023-03-23T08:24:54;95462.72;;;11.74;69.16
20027;BME280;10174;42.688;23.344;2023-03-23T08:27:19;95445.72;;;12.87;64.60
20027;BME280;10174;42.688;23.344;2023-03-23T08:29:45;95459.03;;;13.33;61.85
20027;BME280;10174;42.688;23.344;2023-03-23T08:32:11;95389.31;;;13.00;61.63
20027;BME280;10174;42.688;23.344;2023-03-23T08:34:37;95443.84;;;14.02;59.68
20027;BME280;10174;42.688;23.344;2023-03-23T08:37:02;95440.34;;;14.66;56.68
20027;BME280;10174;42.688;23.344;2023-03-23T08:39:28;95360.97;;;14.27;56.75
20027;BME280;10174;42.688;23.344;2023-03-23T08:41:55;95388.69;;;14.08;55.00
20027;BME280;10174;42.688;23.344;2023-03-23T08:44:20;95423.06;;;15.34;53.70
20027;BME280;10174;42.688;23.344;2023-03-23T08:46:46;95444.19;;;15.75;51.86
20027;BME280;10174;42.688;23.344;2023-03-23T08:49:11;95452.47;;;16.88;49.43
20027;BME280;10174;42.688;23.344;2023-03-23T08:51:36;95425.75;;;16.48;48.03
20027;BME280;10174;42.688;23.344;2023-03-23T08:54:02;95448.53;;;17.50;44.62
20027;BME280;10174;42.688;23.344;2023-03-23T08:56:27;95450.47;;;17.07;45.97
20027;BME280;10174;42.688;23.344;2023-03-23T08:58:53;95440.22;;;17.32;45.66
20027;BME280;10174;42.688;23.344;2023-03-23T09:01:19;95439.41;;;17.18;44.42
20027;BME280;10174;42.688;23.344;2023-03-23T09:03:44;95439.88;;;18.57;41.88
20027;BME280;10174;42.688;23.344;2023-03-23T09:06:10;95445.66;;;18.64;40.86
20027;BME280;10174;42.688;23.344;2023-03-23T09:08:38;95443.59;;;20.34;37.24
20027;BME280;10174;42.688;23.344;2023-03-23T09:11:06;95389.03;;;20.17;36.11
20027;BME280;10174;42.688;23.344;2023-03-23T09:13:33;95438.34;;;21.32;35.03
20027;BME280;10174;42.688;23.344;2023-03-23T09:15:59;95434.41;;;20.47;36.57
20027;BME280;10174;42.688;23.344;2023-03-23T09:18:25;95446.88;;;21.91;34.05
20027;BME280;10174;42.688;23.344;2023-03-23T09:20:51;95358.88;;;19.69;36.18
20027;BME280;10174;42.688;23.344;2023-03-23T09:23:17;95376.91;;;17.96;37.96
20027;BME280;10174;42.688;23.344;2023-03-23T09:25:43;95433.88;;;18.46;40.07
20027;BME280;10174;42.688;23.344;2023-03-23T09:28:09;95441.84;;;17.70;41.92
20027;BME280;10174;42.688;23.344;2023-03-23T09:30:36;95441.25;;;18.23;41.90
20027;BME280;10174;42.688;23.344;2023-03-23T09:33:03;95429.72;;;19.12;39.19
20027;BME280;10174;42.688;23.344;2023-03-23T09:35:31;95430.69;;;19.73;37.21
20027;BME280;10174;42.688;23.344;2023-03-23T09:37:57;95409.72;;;18.45;39.66
20027;BME280;10174;42.688;23.344;2023-03-23T09:40:29;95372.09;;;17.56;41.36
20027;BME280;10174;42.688;23.344;2023-03-23T09:48:54;95419.25;;;21.83;34.43
20027;BME280;10174;42.688;23.344;2023-03-23T09:54:05;95423.13;;;19.44;38.09
20027;BME280;10174;42.688;23.344;2023-03-23T09:56:34;95414.88;;;19.27;38.27
20027;BME280;10174;42.688;23.344;2023-03-23T09:59:09;95411.66;;;20.00;35.33
20027;BME280;10174;42.688;23.344;2023-03-23T10:01:53;95408.84;;;20.78;34.87
20027;BME280;10174;42.688;23.344;2023-03-23T10:04:31;95353.47;;;19.87;36.17
20027;BME280;10174;42.688;23.344;2023-03-23T10:06:59;95417.13;;;21.68;33.74
20027;BME280;10174;42.688;23.344;2023-03-23T10:09:27;95327.06;;;20.91;33.85
20027;BME280;10174;42.688;23.344;2023-03-23T10:14:34;95414.91;;;22.91;32.96
20027;BME280;10174;42.688;23.344;2023-03-23T10:17:16;95409.50;;;22.70;32.68
20027;BME280;10174;42.688;23.344;2023-03-23T10:25:37;95393.06;;;23.16;30.62
20027;BME280;10174;42.688;23.344;2023-03-23T10:28:20;95393.19;;;23.32;30.53
20027;BME280;10174;42.688;23.344;2023-03-23T10:30:53;95402.13;;;24.07;30.20
20027;BME280;10174;42.688;23.344;2023-03-23T10:33:34;95319.19;;;22.95;30.46
20027;BME280;10174;42.688;23.344;2023-03-23T10:36:10;95398.16;;;22.26;31.77
20027;BME280;10174;42.688;23.344;2023-03-23T10:38:50;95386.84;;;20.75;33.80
20027;BME280;10174;42.688;23.344;2023-03-23T10:41:19;95403.06;;;19.40;36.67
20027;BME280;10174;42.688;23.344;2023-03-23T10:43:46;95401.91;;;19.90;37.20
20027;BME280;10174;42.688;23.344;2023-03-23T10:46:21;95397.28;;;21.20;35.02
20027;BME280;10174;42.688;23.344;2023-03-23T10:48:50;95379.91;;;20.13;36.38
20027;BME280;10174;42.688;23.344;2023-03-23T10:51:19;95386.00;;;20.01;35.30
20027;BME280;10174;42.688;23.344;2023-03-23T10:53:51;95369.97;;;19.90;35.24
20027;BME280;10174;42.688;23.344;2023-03-23T10:56:29;95374.16;;;21.47;34.41
20027;BME280;10174;42.688;23.344;2023-03-23T10:58:59;95389.47;;;21.01;34.40
20027;BME280;10174;42.688;23.344;2023-03-23T11:01:32;95387.56;;;21.31;34.87
20027;BME280;10174;42.688;23.344;2023-03-23T11:03:58;95382.75;;;21.67;33.49
20027;BME280;10174;42.688;23.344;2023-03-23T11:06:30;95389.53;;;21.61;32.67
20027;BME280;10174;42.688;23.344;2023-03-23T11:09:08;95376.69;;;22.37;31.58
20027;BME280;10174;42.688;23.344;2023-03-23T11:11:41;95300.47;;;23.22;29.47
20027;BME280;10174;42.688;23.344;2023-03-23T11:14:33;95365.91;;;21.77;31.75
20027;BME280;10174;42.688;23.344;2023-03-23T11:17:02;95364.34;;;22.31;32.49
20027;BME280;10174;42.688;23.344;2023-03-23T11:19:30;95360.25;;;21.61;33.68
20027;BME280;10174;42.688;23.344;2023-03-23T11:22:08;95348.44;;;21.91;32.64
20027;BME280;10174;42.688;23.344;2023-03-23T11:24:44;95350.56;;;21.85;33.07
20027;BME280;10174;42.688;23.344;2023-03-23T11:27:10;95355.53;;;21.92;32.69
20027;BME280;10174;42.688;23.344;2023-03-23T11:29:49;95344.41;;;22.76;32.49
20027;BME280;10174;42.688;23.344;2023-03-23T11:32:16;95345.84;;;22.28;33.08
20027;BME280;10174;42.688;23.344;2023-03-23T11:34:48;95347.84;;;23.10;30.79
20027;BME280;10174;42.688;23.344;2023-03-23T11:37:24;95351.69;;;22.84;30.95
20027;BME280;10174;42.688;23.344;2023-03-23T11:48:18;95342.91;;;24.94;28.51
20027;BME280;10174;42.688;23.344;2023-03-23T11:53:50;95330.16;;;23.97;30.00
20027;BME280;10174;42.688;23.344;2023-03-23T11:58:50;95331.19;;;23.03;30.38
20027;BME280;10174;42.688;23.344;2023-03-23T12:09:52;95317.41;;;22.08;33.05
20027;BME280;10174;42.688;23.344;2023-03-23T12:15:20;95306.97;;;22.55;31.56
20027;BME280;10174;42.688;23.344;2023-03-23T12:18:13;95309.16;;;23.24;31.78
20027;BME280;10174;42.688;23.344;2023-03-23T12:20:46;95308.31;;;24.61;29.05
20027;BME280;10174;42.688;23.344;2023-03-23T12:23:24;95305.84;;;23.71;29.74
20027;BME280;10174;42.688;23.344;2023-03-23T12:26:23;95309.03;;;22.58;31.78
20027;BME280;10174;42.688;23.344;2023-03-23T12:29:13;95310.16;;;22.24;32.28
20027;BME280;10174;42.688;23.344;2023-03-23T12:31:53;95313.59;;;21.66;33.36
20027;BME280;10174;42.688;23.344;2023-03-23T12:34:41;95291.69;;;21.45;34.39
20027;BME280;10174;42.688;23.344;2023-03-23T12:37:30;95313.97;;;20.28;35.12
20027;BME280;10174;42.688;23.344;2023-03-23T12:42:58;95293.56;;;23.53;29.68
20027;BME280;10174;42.688;23.344;2023-03-23T12:45:50;95287.94;;;24.02;28.87
20027;BME280;10174;42.688;23.344;2023-03-23T12:48:40;95297.41;;;21.61;33.58
20027;BME280;10174;42.688;23.344;2023-03-23T12:51:19;95285.63;;;19.42;36.07
20027;BME280;10174;42.688;23.344;2023-03-23T12:54:03;95269.88;;;18.46;38.04
20027;BME280;10174;42.688;23.344;2023-03-23T12:59:20;95195.75;;;17.37;38.84
20027;BME280;10174;42.688;23.344;2023-03-23T13:01:51;95254.66;;;17.14;39.71
20027;BME280;10174;42.688;23.344;2023-03-23T13:04:22;95265.66;;;16.81;42.05
20027;BME280;10174;42.688;23.344;2023-03-23T13:06:51;95167.00;;;16.27;41.95
20027;BME280;10174;42.688;23.344;2023-03-23T13:11:54;95236.25;;;17.11;43.06
20027;BME280;10174;42.688;23.344;2023-03-23T13:14:41;95267.13;;;17.60;41.51
20027;BME280;10174;42.688;23.344;2023-03-23T13:23:08;95256.03;;;17.48;41.72
20027;BME280;10174;42.688;23.344;2023-03-23T13:25:53;95266.78;;;17.53;43.22
20027;BME280;10174;42.688;23.344;2023-03-23T13:28:24;95195.78;;;17.01;42.14
20027;BME280;10174;42.688;23.344;2023-03-23T13:30:59;95245.53;;;17.33;42.72
20027;BME280;10174;42.688;23.344;2023-03-23T13:33:29;95197.41;;;17.02;42.24
20027;BME280;10174;42.688;23.344;2023-03-23T13:35:55;95259.66;;;17.43;41.97
20027;BME280;10174;42.688;23.344;2023-03-23T13:38:27;95262.81;;;17.37;42.05
20027;BME280;10174;42.688;23.344;2023-03-23T13:40:56;95265.66;;;17.32;42.48
20027;BME280;10174;42.688;23.344;2023-03-23T13:43:28;95258.84;;;17.20;42.14
20027;BME280;10174;42.688;23.344;2023-03-23T13:45:54;95240.72;;;17.30;43.09
20027;BME280;10174;42.688;23.344;2023-03-23T13:48:23;95249.97;;;17.51;42.25
20027;BME280;10174;42.688;23.344;2023-03-23T13:50:59;95257.41;;;17.37;42.90
20027;BME280;10174;42.688;23.344;2023-03-23T13:53:46;95240.94;;;16.97;43.18
20027;BME280;10174;42.688;23.344;2023-03-23T13:56:19;95241.44;;;16.99;42.36
20027;BME280;10174;42.688;23.344;2023-03-23T13:59:05;95247.97;;;16.70;43.54
20027;BME280;10174;42.688;23.344;2023-03-23T14:01:37;95164.56;;;16.39;43.75
20027;BME280;10174;42.688;23.344;2023-03-23T14:04:18;95245.66;;;16.91;43.12
20027;BME280;10174;42.688;23.344;2023-03-23T14:06:46;95241.00;;;17.05;42.96
20027;BME280;10174;42.688;23.344;2023-03-23T14:11:58;95224.91;;;17.09;42.96
20027;BME280;10174;42.688;23.344;2023-03-23T14:14:31;95237.13;;;17.20;43.75
20027;BME280;10174;42.688;23.344;2023-03-23T14:17:26;95228.50;;;17.18;43.15
20027;BME280;10174;42.688;23.344;2023-03-23T14:19:55;95233.97;;;17.04;43.93
20027;BME280;10174;42.688;23.344;2023-03-23T14:22:27;95229.47;;;16.72;42.78